Time,TemperatureF,DewpointF,PressureIn,WindDirection,WindDirectionDegrees,WindSpeedMPH,WindSpeedGustMPH,Humidity,HourlyPrecipIn,Conditions,Clouds,dailyrainin,SoftwareType,DateUTC
2013-08-23 00:03:00,75.1,68.8,30.04,ESE,122,0.0,0.0,81,0.00,SCT,SCT,0.00,WeatherDisplay:10.37,2013-08-23 05:03:00,
2013-08-23 00:09:00,74.9,68.6,30.04,East,85,2.0,3.0,81,0.00,SCT,SCT,0.00,WeatherDisplay:10.37,2013-08-23 05:09:00,
2013-08-23 00:15:00,74.7,68.4,30.04,East,95,0.0,0.0,81,0.00,SCT,SCT,0.00,WeatherDisplay:10.37,2013-08-23 05:15:00,
2013-08-23 00:21:00,74.5,68.6,30.04,East,81,3.0,5.0,82,0.00,SCT,SCT,0.00,WeatherDisplay:10.37,2013-08-23 05:21:00,
2013-08-23 00:27:00,74.3,68.4,30.05,SE,136,1.0,3.0,82,0.00,SCT,SCT,0.00,WeatherDisplay:10.37,2013-08-23 05:27:00,
2013-08-23 00:33:00,74.3,68.8,30.05,SE,131,3.0,4.0,83,0.00,SCT,SCT,0.00,WeatherDisplay:10.37,2013-08-23 05:33:00,
2013-08-23 00:39:00,74.3,68.8,30.05,ESE,120,0.0,5.0,83,0.00,SCT,SCT,0.00,WeatherDisplay:10.37,2013-08-23 05:39:00,
2013-08-23 00:45:00,74.2,68.7,30.05,SSE,149,2.0,5.0,83,0.00,SCT,SCT,0.00,WeatherDisplay:10.37,2013-08-23 05:45:00,
2013-08-23 00:51:00,74.2,68.7,30.05,SE,131,0.0,4.0,83,0.00,SCT,SCT,0.00,WeatherDisplay:10.37,2013-08-23 05:51:00,
2013-08-23 00:57:00,74.3,68.8,30.05,SE,144,1.0,6.0,83,0.00,SCT,SCT,0.00,WeatherDisplay:10.37,2013-08-23 05:57:00,
2013-08-23 01:03:00,74.0,68.5,30.04,SE,134,0.0,4.0,83,0.00,FEW,FEW,0.00,WeatherDisplay:10.37,2013-08-23 06:03:00,
2013-08-23 01:09:00,74.0,68.5,30.04,SE,128,2.0,3.0,83,0.00,FEW,FEW,0.00,WeatherDisplay:10.37,2013-08-23 06:09:00,
2013-08-23 01:15:00,73.9,68.4,30.04,ESE,113,0.0,3.0,83,0.00,FEW,FEW,0.00,WeatherDisplay:10.37,2013-08-23 06:15:00,
2013-08-23 01:21:00,73.8,68.6,30.04,East,92,0.0,3.0,84,0.00,FEW,FEW,0.00,WeatherDisplay:10.37,2013-08-23 06:21:00,
2013-08-23 01:27:00,73.8,68.6,30.05,ENE,71,0.0,4.0,84,0.00,FEW,FEW,0.00,WeatherDisplay:10.37,2013-08-23 06:27:00,
2013-08-23 01:33:00,73.6,68.4,30.05,East,98,3.0,5.0,84,0.00,FEW,FEW,0.00,WeatherDisplay:10.37,2013-08-23 06:33:00,
2013-08-23 01:39:00,73.4,68.6,30.04,East,93,0.0,3.0,85,0.00,FEW,FEW,0.00,WeatherDisplay:10.37,2013-08-23 06:39:00,
2013-08-23 01:45:00,73.3,68.5,30.04,East,96,1.0,3.0,85,0.00,FEW,FEW,0.00,WeatherDisplay:10.37,2013-08-23 06:45:00,
2013-08-23 01:51:00,73.3,68.5,30.05,ESE,107,2.0,6.0,85,0.00,FEW,FEW,0.00,WeatherDisplay:10.37,2013-08-23 06:51:00,
2013-08-23 01:57:00,73.1,68.6,30.05,SE,129,2.0,4.0,86,0.00,FEW,FEW,0.00,WeatherDisplay:10.37,2013-08-23 06:57:00,
2013-08-23 02:03:00,72.9,68.4,30.05,ESE,117,1.0,3.0,86,0.00,CLR,CLR,0.00,WeatherDisplay:10.37,2013-08-23 07:03:00,
2013-08-23 02:09:00,72.9,68.8,30.05,ESE,121,2.0,3.0,87,0.00,CLR,CLR,0.00,WeatherDisplay:10.37,2013-08-23 07:09:00,
2013-08-23 02:15:00,72.7,68.6,30.04,ESE,116,2.0,3.0,87,0.00,CLR,CLR,0.00,WeatherDisplay:10.37,2013-08-23 07:15:00,
2013-08-23 02:21:00,72.5,68.4,30.04,ESE,106,0.0,3.0,87,0.00,CLR,CLR,0.00,WeatherDisplay:10.37,2013-08-23 07:21:00,
2013-08-23 02:27:00,72.4,68.6,30.05,ESE,107,0.0,3.0,88,0.00,CLR,CLR,0.00,WeatherDisplay:10.37,2013-08-23 07:27:00,
2013-08-23 02:33:00,72.2,68.4,30.05,SE,131,2.0,4.0,88,0.00,CLR,CLR,0.00,WeatherDisplay:10.37,2013-08-23 07:33:00,
2013-08-23 02:39:00,72.0,68.2,30.05,ESE,119,0.0,2.0,88,0.00,CLR,CLR,0.00,WeatherDisplay:10.37,2013-08-23 07:39:00,
2013-08-23 02:45:00,71.6,68.2,30.05,East,95,0.0,0.0,89,0.00,CLR,CLR,0.00,WeatherDisplay:10.37,2013-08-23 07:45:00,
2013-08-23 02:51:00,71.6,68.1,30.05,ESE,110,0.0,5.0,89,0.00,CLR,CLR,0.00,WeatherDisplay:10.37,2013-08-23 07:51:00,
2013-08-23 02:57:00,71.5,68.1,30.05,ESE,112,0.0,2.0,89,0.00,CLR,CLR,0.00,WeatherDisplay:10.37,2013-08-23 07:57:00,
2013-08-23 03:03:00,71.4,68.3,30.05,ESE,108,0.0,2.0,90,0.00,CLR,CLR,0.00,WeatherDisplay:10.37,2013-08-23 08:03:00,
2013-08-23 03:09:00,71.3,68.2,30.05,ESE,119,0.0,0.0,90,0.00,CLR,CLR,0.00,WeatherDisplay:10.37,2013-08-23 08:09:00,
2013-08-23 03:15:00,71.1,68.0,30.04,ESE,117,0.0,0.0,90,0.00,CLR,CLR,0.00,WeatherDisplay:10.37,2013-08-23 08:15:00,
2013-08-23 03:21:00,70.9,68.1,30.04,ESE,103,0.0,0.0,91,0.00,CLR,CLR,0.00,WeatherDisplay:10.37,2013-08-23 08:21:00,
2013-08-23 03:27:00,70.7,67.9,30.04,ESE,117,3.0,5.0,91,0.00,CLR,CLR,0.00,WeatherDisplay:10.37,2013-08-23 08:27:00,
2013-08-23 03:33:00,70.7,67.9,30.04,ESE,118,0.0,0.0,91,0.00,CLR,CLR,0.00,WeatherDisplay:10.37,2013-08-23 08:33:00,
2013-08-23 03:39:00,71.1,68.3,30.04,ESE,104,2.0,5.0,91,0.00,CLR,CLR,0.00,WeatherDisplay:10.37,2013-08-23 08:39:00,
2013-08-23 03:45:00,70.9,68.1,30.04,East,101,0.0,0.0,91,0.00,CLR,CLR,0.00,WeatherDisplay:10.37,2013-08-23 08:45:00,
2013-08-23 03:51:00,70.9,68.1,30.04,SE,140,0.0,0.0,91,0.00,CLR,CLR,0.00,WeatherDisplay:10.37,2013-08-23 08:51:00,
2013-08-23 03:57:00,70.7,67.9,30.04,SE,141,0.0,0.0,91,0.00,CLR,CLR,0.00,WeatherDisplay:10.37,2013-08-23 08:57:00,
2013-08-23 04:03:00,70.7,67.9,30.04,SSE,152,1.0,3.0,91,0.00,SCT,SCT,0.00,WeatherDisplay:10.37,2013-08-23 09:03:00,
2013-08-23 04:09:00,70.6,67.8,30.04,SSE,163,0.0,0.0,91,0.00,SCT,SCT,0.00,WeatherDisplay:10.37,2013-08-23 09:09:00,
2013-08-23 04:15:00,70.6,68.1,30.03,ESE,122,0.0,0.0,92,0.00,SCT,SCT,0.00,WeatherDisplay:10.37,2013-08-23 09:15:00,
2013-08-23 04:21:00,70.6,68.1,30.03,East,90,0.0,0.0,92,0.00,SCT,SCT,0.00,WeatherDisplay:10.37,2013-08-23 09:21:00,
2013-08-23 04:27:00,70.2,67.7,30.03,ESE,105,0.0,0.0,92,0.00,SCT,SCT,0.00,WeatherDisplay:10.37,2013-08-23 09:27:00,
2013-08-23 04:33:00,70.2,67.7,30.03,East,90,0.0,0.0,92,0.00,SCT,SCT,0.00,WeatherDisplay:10.37,2013-08-23 09:33:00,
2013-08-23 04:39:00,70.0,67.5,30.03,ENE,65,0.0,0.0,92,0.00,SCT,SCT,0.00,WeatherDisplay:10.37,2013-08-23 09:39:00,
2013-08-23 04:45:00,70.2,68.0,30.03,NE,52,2.0,4.0,93,0.00,SCT,SCT,0.00,WeatherDisplay:10.37,2013-08-23 09:45:00,
2013-08-23 04:51:00,70.0,67.8,30.03,East,91,0.0,0.0,93,0.00,SCT,SCT,0.00,WeatherDisplay:10.37,2013-08-23 09:51:00,
2013-08-23 04:57:00,69.8,67.6,30.03,East,100,0.0,0.0,93,0.00,SCT,SCT,0.00,WeatherDisplay:10.37,2013-08-23 09:57:00,
2013-08-23 05:03:00,69.8,67.6,30.03,ESE,112,0.0,0.0,93,0.00,SCT,SCT,0.00,WeatherDisplay:10.37,2013-08-23 10:03:00,
2013-08-23 05:09:00,69.8,67.6,30.03,ESE,114,0.0,0.0,93,0.00,SCT,SCT,0.00,WeatherDisplay:10.37,2013-08-23 10:09:00,
2013-08-23 05:15:00,70.0,67.8,30.03,ESE,118,0.0,0.0,93,0.00,SCT,SCT,0.00,WeatherDisplay:10.37,2013-08-23 10:15:00,
2013-08-23 05:21:00,70.2,68.0,30.03,SE,135,0.0,0.0,93,0.00,SCT,SCT,0.00,WeatherDisplay:10.37,2013-08-23 10:21:00,
2013-08-23 05:27:00,70.2,68.0,30.03,ESE,115,0.0,0.0,93,0.00,SCT,SCT,0.00,WeatherDisplay:10.37,2013-08-23 10:27:00,
2013-08-23 05:33:00,70.4,67.9,30.03,ENE,76,0.0,0.0,92,0.00,SCT,SCT,0.00,WeatherDisplay:10.37,2013-08-23 10:33:00,
2013-08-23 05:39:00,70.5,68.1,30.03,East,85,1.0,3.0,92,0.00,SCT,SCT,0.00,WeatherDisplay:10.37,2013-08-23 10:39:00,
2013-08-23 05:45:00,70.4,68.0,30.03,ESE,105,0.0,0.0,92,0.00,SCT,SCT,0.00,WeatherDisplay:10.37,2013-08-23 10:45:00,
2013-08-23 05:51:00,70.4,67.9,30.03,SE,126,0.0,0.0,92,0.00,SCT,SCT,0.00,WeatherDisplay:10.37,2013-08-23 10:51:00,
2013-08-23 05:57:00,70.2,67.7,30.03,East,90,0.0,0.0,92,0.00,SCT,SCT,0.00,WeatherDisplay:10.37,2013-08-23 10:57:00,
2013-08-23 06:03:00,70.0,67.5,30.03,ENE,76,1.0,2.0,92,0.00,SCT,SCT,0.00,WeatherDisplay:10.37,2013-08-23 11:03:00,
2013-08-23 06:09:00,70.0,67.5,30.03,East,91,0.0,0.0,92,0.00,SCT,SCT,0.00,WeatherDisplay:10.37,2013-08-23 11:09:00,
2013-08-23 06:15:00,70.0,67.5,30.03,SE,137,0.0,0.0,92,0.00,SCT,SCT,0.00,WeatherDisplay:10.37,2013-08-23 11:15:00,
2013-08-23 06:21:00,70.0,67.5,30.03,SSE,147,0.0,0.0,92,0.00,SCT,SCT,0.00,WeatherDisplay:10.37,2013-08-23 11:21:00,
2013-08-23 06:27:00,70.0,67.6,30.03,ESE,116,0.0,4.0,92,0.00,SCT,SCT,0.00,WeatherDisplay:10.37,2013-08-23 11:27:00,
2013-08-23 06:33:00,70.0,67.5,30.03,SW,234,0.0,0.0,92,0.00,SCT,SCT,0.00,WeatherDisplay:10.37,2013-08-23 11:33:00,
2013-08-23 06:39:00,70.0,67.6,30.04,ESE,116,0.0,0.0,92,0.00,SCT,SCT,0.00,WeatherDisplay:10.37,2013-08-23 11:39:00,
2013-08-23 06:45:00,70.2,67.7,30.04,East,100,0.0,0.0,92,0.00,SCT,SCT,0.00,WeatherDisplay:10.37,2013-08-23 11:45:00,
2013-08-23 06:51:00,70.4,67.9,30.04,ESE,120,0.0,0.0,92,0.00,SCT,SCT,0.00,WeatherDisplay:10.37,2013-08-23 11:51:00,
2013-08-23 06:57:00,70.4,67.6,30.04,ESE,121,0.0,0.0,91,0.00,SCT,SCT,0.00,WeatherDisplay:10.37,2013-08-23 11:57:00,
2013-08-23 07:03:00,70.6,67.5,30.04,ESE,119,0.0,0.0,90,0.00,BKN,BKN,0.00,WeatherDisplay:10.37,2013-08-23 12:03:00,
2013-08-23 07:09:00,70.6,67.6,30.04,ESE,112,0.0,0.0,90,0.00,BKN,BKN,0.00,WeatherDisplay:10.37,2013-08-23 12:09:00,
2013-08-23 07:15:00,70.9,67.8,30.03,ESE,114,0.0,0.0,90,0.00,BKN,BKN,0.00,WeatherDisplay:10.37,2013-08-23 12:15:00,
2013-08-23 07:21:00,71.3,67.8,30.03,SE,128,0.0,0.0,89,0.00,BKN,BKN,0.00,WeatherDisplay:10.37,2013-08-23 12:21:00,
2013-08-23 07:27:00,71.8,68.0,30.04,SE,136,2.0,3.0,88,0.00,BKN,BKN,0.00,WeatherDisplay:10.37,2013-08-23 12:27:00,
2013-08-23 07:33:00,71.8,68.0,30.04,ESE,103,2.0,3.0,88,0.00,BKN,BKN,0.00,WeatherDisplay:10.37,2013-08-23 12:33:00,
2013-08-23 07:39:00,72.0,67.9,30.04,SSE,147,0.0,0.0,87,0.00,BKN,BKN,0.00,WeatherDisplay:10.37,2013-08-23 12:39:00,
2013-08-23 07:45:00,72.0,67.9,30.04,SE,141,0.0,0.0,87,0.00,BKN,BKN,0.00,WeatherDisplay:10.37,2013-08-23 12:45:00,
2013-08-23 07:51:00,72.2,68.1,30.05,SE,143,0.0,0.0,87,0.00,BKN,BKN,0.00,WeatherDisplay:10.37,2013-08-23 12:51:00,
2013-08-23 07:57:00,72.2,68.1,30.05,East,95,2.0,3.0,87,0.00,BKN,BKN,0.00,WeatherDisplay:10.37,2013-08-23 12:57:00,
2013-08-23 08:03:00,72.4,68.3,30.05,SE,133,1.0,4.0,87,0.00,BKN,BKN,0.00,WeatherDisplay:10.37,2013-08-23 13:03:00,
2013-08-23 08:09:00,72.4,67.9,30.05,SE,135,1.0,2.0,86,0.00,BKN,BKN,0.00,WeatherDisplay:10.37,2013-08-23 13:09:00,
2013-08-23 08:15:00,72.4,67.9,30.05,ESE,113,0.0,0.0,86,0.00,BKN,BKN,0.00,WeatherDisplay:10.37,2013-08-23 13:15:00,
2013-08-23 08:21:00,72.5,68.0,30.05,SE,132,2.0,4.0,86,0.00,BKN,BKN,0.00,WeatherDisplay:10.37,2013-08-23 13:21:00,
2013-08-23 08:27:00,72.5,68.0,30.06,ESE,123,0.0,0.0,86,0.00,BKN,BKN,0.00,WeatherDisplay:10.37,2013-08-23 13:27:00,
2013-08-23 08:33:00,72.9,68.1,30.06,ESE,111,0.0,0.0,85,0.00,BKN,BKN,0.00,WeatherDisplay:10.37,2013-08-23 13:33:00,
2013-08-23 08:39:00,73.9,68.5,30.06,SE,128,3.0,4.0,83,0.00,BKN,BKN,0.00,WeatherDisplay:10.37,2013-08-23 13:39:00,
2013-08-23 08:45:00,74.8,68.9,30.06,ESE,111,0.0,0.0,82,0.00,BKN,BKN,0.00,WeatherDisplay:10.37,2013-08-23 13:45:00,
2013-08-23 08:51:00,75.6,69.0,30.05,ESE,120,5.0,5.0,80,0.00,BKN,BKN,0.00,WeatherDisplay:10.37,2013-08-23 13:51:00,
2013-08-23 08:57:00,75.8,68.8,30.05,ESE,114,1.0,4.0,79,0.00,BKN,BKN,0.00,WeatherDisplay:10.37,2013-08-23 13:57:00,
2013-08-23 09:03:00,76.1,68.7,30.05,South,177,3.0,5.0,78,0.00,BKN,BKN,0.00,WeatherDisplay:10.37,2013-08-23 14:03:00,
2013-08-23 09:09:00,76.1,68.7,30.05,South,183,5.0,9.0,78,0.00,BKN,BKN,0.00,WeatherDisplay:10.37,2013-08-23 14:09:00,
2013-08-23 09:15:00,76.5,68.8,30.05,SSE,152,3.0,7.0,77,0.00,BKN,BKN,0.00,WeatherDisplay:10.37,2013-08-23 14:15:00,
2013-08-23 09:21:00,77.0,69.2,30.05,SSE,168,5.0,7.0,77,0.00,BKN,BKN,0.00,WeatherDisplay:10.37,2013-08-23 14:21:00,
2013-08-23 09:27:00,77.3,69.1,30.05,SSE,152,3.0,7.0,76,0.00,BKN,BKN,0.00,WeatherDisplay:10.37,2013-08-23 14:27:00,
2013-08-23 09:33:00,77.6,69.4,30.05,SE,138,5.0,7.0,76,0.00,BKN,BKN,0.00,WeatherDisplay:10.37,2013-08-23 14:33:00,
2013-08-23 09:39:00,78.1,69.9,30.04,South,187,5.0,8.0,76,0.00,BKN,BKN,0.00,WeatherDisplay:10.37,2013-08-23 14:39:00,
2013-08-23 09:45:00,78.3,69.7,30.04,South,169,5.0,10.0,75,0.00,BKN,BKN,0.00,WeatherDisplay:10.37,2013-08-23 14:45:00,
2013-08-23 09:51:00,78.9,70.3,30.04,ESE,116,3.0,7.0,75,0.00,BKN,BKN,0.00,WeatherDisplay:10.37,2013-08-23 14:51:00,
2013-08-23 09:57:00,79.2,70.2,30.04,ESE,120,6.0,8.0,74,0.00,BKN,BKN,0.00,WeatherDisplay:10.37,2013-08-23 14:57:00,
2013-08-23 10:03:00,79.7,70.6,30.05,SSE,158,2.0,7.0,74,0.00,BKN,BKN,0.00,WeatherDisplay:10.37,2013-08-23 15:03:00,
2013-08-23 10:09:00,80.3,71.2,30.05,South,186,5.0,7.0,74,0.00,BKN,BKN,0.00,WeatherDisplay:10.37,2013-08-23 15:09:00,
2013-08-23 10:15:00,80.1,70.2,30.04,South,189,6.0,7.0,72,0.00,BKN,BKN,0.00,WeatherDisplay:10.37,2013-08-23 15:15:00,
2013-08-23 10:21:00,80.1,70.2,30.04,South,183,7.0,7.0,72,0.00,BKN,BKN,0.00,WeatherDisplay:10.37,2013-08-23 15:21:00,
2013-08-23 10:27:00,80.1,70.2,30.04,South,180,7.0,7.0,72,0.00,BKN,BKN,0.00,WeatherDisplay:10.37,2013-08-23 15:27:00,
2013-08-23 10:33:00,80.1,70.2,30.04,South,180,7.0,7.0,72,0.00,BKN,BKN,0.00,WeatherDisplay:10.37,2013-08-23 15:33:00,
2013-08-23 10:48:00,82.4,71.6,30.05,South,186,5.0,8.0,70,0.00,BKN,BKN,0.00,WeatherDisplay:10.37,2013-08-23 15:48:00,
2013-08-23 10:54:00,82.7,71.5,30.05,SSE,163,7.0,9.0,69,0.00,BKN,BKN,0.00,WeatherDisplay:10.37,2013-08-23 15:54:00,
2013-08-23 11:00:00,83.4,72.1,30.05,SSE,152,6.0,11.0,69,0.00,BKN,BKN,0.00,WeatherDisplay:10.37,2013-08-23 16:00:00,
2013-08-23 11:06:00,83.5,72.2,30.05,SSE,160,5.0,7.0,69,0.00,BKN,BKN,0.00,WeatherDisplay:10.37,2013-08-23 16:06:00,
2013-08-23 11:12:00,83.9,71.8,30.05,SE,136,6.0,7.0,67,0.00,BKN,BKN,0.00,WeatherDisplay:10.37,2013-08-23 16:12:00,
2013-08-23 11:18:00,85.0,72.4,30.05,ESE,117,3.0,7.0,66,0.00,BKN,BKN,0.00,WeatherDisplay:10.37,2013-08-23 16:18:00,
2013-08-23 11:24:00,84.4,71.8,30.05,SE,129,6.0,7.0,66,0.00,BKN,BKN,0.00,WeatherDisplay:10.37,2013-08-23 16:24:00,
2013-08-23 11:30:00,84.7,71.2,30.04,SE,146,7.0,9.0,64,0.00,BKN,BKN,0.00,WeatherDisplay:10.37,2013-08-23 16:30:00,
2013-08-23 11:36:00,85.2,72.1,30.04,SE,137,3.0,7.0,65,0.00,BKN,BKN,0.00,WeatherDisplay:10.37,2013-08-23 16:36:00,
2013-08-23 11:42:00,85.3,73.1,30.05,East,93,3.0,6.0,67,0.00,BKN,BKN,0.00,WeatherDisplay:10.37,2013-08-23 16:42:00,
2013-08-23 11:48:00,86.0,72.9,30.04,SE,138,5.0,8.0,65,0.00,BKN,BKN,0.00,WeatherDisplay:10.37,2013-08-23 16:48:00,
2013-08-23 11:54:00,86.1,72.9,30.04,ESE,118,2.0,6.0,65,0.00,BKN,BKN,0.00,WeatherDisplay:10.37,2013-08-23 16:54:00,
2013-08-23 12:00:00,86.8,73.6,30.04,ESE,115,3.0,5.0,65,0.00,BKN,BKN,0.00,WeatherDisplay:10.37,2013-08-23 17:00:00,
2013-08-23 12:06:00,86.8,72.7,30.04,SE,140,5.0,7.0,63,0.00,BKN,BKN,0.00,WeatherDisplay:10.37,2013-08-23 17:06:00,
2013-08-23 12:12:00,86.9,72.7,30.03,ESE,117,5.0,7.0,63,0.00,BKN,BKN,0.00,WeatherDisplay:10.37,2013-08-23 17:12:00,
2013-08-23 12:18:00,87.1,72.9,30.03,ESE,102,3.0,7.0,63,0.00,BKN,BKN,0.00,WeatherDisplay:10.37,2013-08-23 17:18:00,
2013-08-23 12:24:00,86.9,72.3,30.03,ESE,119,5.0,7.0,62,0.00,BKN,BKN,0.00,WeatherDisplay:10.37,2013-08-23 17:24:00,
2013-08-23 12:30:00,86.8,72.7,30.03,SSE,148,5.0,6.0,63,0.00,BKN,BKN,0.00,WeatherDisplay:10.37,2013-08-23 17:30:00,
2013-08-23 12:36:00,88.1,73.4,30.03,SE,135,5.0,7.0,62,0.00,BKN,BKN,0.00,WeatherDisplay:10.37,2013-08-23 17:36:00,
2013-08-23 12:42:00,87.9,73.7,30.03,SE,135,5.0,6.0,63,0.00,BKN,BKN,0.00,WeatherDisplay:10.37,2013-08-23 17:42:00,
2013-08-23 12:48:00,87.8,73.1,30.03,SE,124,5.0,7.0,62,0.00,BKN,BKN,0.00,WeatherDisplay:10.37,2013-08-23 17:48:00,
2013-08-23 12:54:00,87.8,72.6,30.03,SSE,148,6.0,10.0,61,0.00,BKN,BKN,0.00,WeatherDisplay:10.37,2013-08-23 17:54:00,
2013-08-23 13:00:00,88.7,73.6,30.03,South,170,5.0,6.0,61,0.00,BKN,BKN,0.00,WeatherDisplay:10.37,2013-08-23 18:00:00,
2013-08-23 13:06:00,89.2,73.5,30.02,East,84,5.0,6.0,60,0.00,BKN,BKN,0.00,WeatherDisplay:10.37,2013-08-23 18:06:00,
2013-08-23 13:12:00,89.4,73.2,30.02,ESE,103,5.0,10.0,59,0.00,BKN,BKN,0.00,WeatherDisplay:10.37,2013-08-23 18:12:00,
2013-08-23 13:18:00,89.9,73.7,30.02,SSW,206,3.0,6.0,59,0.00,BKN,BKN,0.00,WeatherDisplay:10.37,2013-08-23 18:18:00,
2013-08-23 13:24:00,89.3,73.6,30.02,ENE,65,5.0,6.0,60,0.00,BKN,BKN,0.00,WeatherDisplay:10.37,2013-08-23 18:24:00,
2013-08-23 13:30:00,90.5,72.7,30.01,ESE,105,5.0,7.0,56,0.00,BKN,BKN,0.00,WeatherDisplay:10.37,2013-08-23 18:30:00,
2013-08-23 13:36:00,90.4,73.1,30.01,ESE,123,5.0,10.0,57,0.00,BKN,BKN,0.00,WeatherDisplay:10.37,2013-08-23 18:36:00,
2013-08-23 13:42:00,90.7,73.4,30.01,ESE,104,6.0,8.0,57,0.00,BKN,BKN,0.00,WeatherDisplay:10.37,2013-08-23 18:42:00,
2013-08-23 13:48:00,90.8,73.4,30.01,East,97,5.0,7.0,57,0.00,BKN,BKN,0.00,WeatherDisplay:10.37,2013-08-23 18:48:00,
2013-08-23 13:54:00,91.1,73.8,30.00,ESE,118,8.0,10.0,57,0.00,BKN,BKN,0.00,WeatherDisplay:10.37,2013-08-23 18:54:00,
2013-08-23 14:00:00,91.3,72.9,30.00,East,81,5.0,7.0,55,0.00,BKN,BKN,0.00,WeatherDisplay:10.37,2013-08-23 19:00:00,
2013-08-23 14:06:00,91.8,73.3,30.00,East,101,6.0,7.0,55,0.00,BKN,BKN,0.00,WeatherDisplay:10.37,2013-08-23 19:06:00,
2013-08-23 14:12:00,90.6,71.7,30.00,East,101,3.0,7.0,54,0.00,BKN,BKN,0.00,WeatherDisplay:10.37,2013-08-23 19:12:00,
2013-08-23 14:18:00,91.0,70.9,30.00,SE,135,3.0,7.0,52,0.00,BKN,BKN,0.00,WeatherDisplay:10.37,2013-08-23 19:18:00,
2013-08-23 14:24:00,91.7,71.6,30.00,SE,136,6.0,9.0,52,0.00,BKN,BKN,0.00,WeatherDisplay:10.37,2013-08-23 19:24:00,
2013-08-23 14:30:00,91.8,71.1,30.00,SSE,148,6.0,7.0,51,0.00,BKN,BKN,0.00,WeatherDisplay:10.37,2013-08-23 19:30:00,
2013-08-23 14:36:00,92.1,69.6,30.00,SSW,193,7.0,12.0,48,0.00,BKN,BKN,0.00,WeatherDisplay:10.37,2013-08-23 19:36:00,
2013-08-23 14:42:00,92.1,69.6,29.99,South,181,6.0,11.0,48,0.00,BKN,BKN,0.00,WeatherDisplay:10.37,2013-08-23 19:42:00,
2013-08-23 14:48:00,92.2,69.1,29.99,SSE,150,6.0,10.0,47,0.00,BKN,BKN,0.00,WeatherDisplay:10.37,2013-08-23 19:48:00,
2013-08-23 14:54:00,92.3,69.7,29.99,SSE,166,8.0,10.0,48,0.00,BKN,BKN,0.00,WeatherDisplay:10.37,2013-08-23 19:54:00,
2013-08-23 15:00:00,93.4,70.7,29.99,SSE,163,6.0,9.0,48,0.00,BKN,BKN,0.00,WeatherDisplay:10.37,2013-08-23 20:00:00,
2013-08-23 15:06:00,93.1,71.1,29.99,SSE,162,5.0,6.0,49,0.00,BKN,BKN,0.00,WeatherDisplay:10.37,2013-08-23 20:06:00,
2013-08-23 15:12:00,93.8,70.5,29.99,SE,137,7.0,9.0,47,0.00,BKN,BKN,0.00,WeatherDisplay:10.37,2013-08-23 20:12:00,
2013-08-23 15:18:00,93.6,71.0,29.98,SE,138,7.0,10.0,48,0.00,BKN,BKN,0.00,WeatherDisplay:10.37,2013-08-23 20:18:00,
2013-08-23 15:24:00,92.6,71.2,29.98,SE,130,5.0,7.0,50,0.00,BKN,BKN,0.00,WeatherDisplay:10.37,2013-08-23 20:24:00,
2013-08-23 15:30:00,94.1,71.4,29.98,ESE,113,5.0,12.0,48,0.00,BKN,BKN,0.00,WeatherDisplay:10.37,2013-08-23 20:30:00,
2013-08-23 15:36:00,95.0,72.2,29.98,SSE,157,5.0,7.0,48,0.00,BKN,BKN,0.00,WeatherDisplay:10.37,2013-08-23 20:36:00,
2013-08-23 15:42:00,94.1,72.6,29.98,East,89,6.0,9.0,50,0.00,BKN,BKN,0.00,WeatherDisplay:10.37,2013-08-23 20:42:00,
2013-08-23 15:48:00,93.1,73.4,29.98,ESE,111,5.0,10.0,53,0.00,BKN,BKN,0.00,WeatherDisplay:10.37,2013-08-23 20:48:00,
2013-08-23 15:54:00,92.3,72.7,29.98,ESE,119,3.0,7.0,53,0.00,BKN,BKN,0.00,WeatherDisplay:10.37,2013-08-23 20:54:00,
2013-08-23 16:00:00,91.0,72.1,29.98,ESE,114,7.0,8.0,54,0.00,BKN,BKN,0.00,WeatherDisplay:10.37,2013-08-23 21:00:00,
2013-08-23 16:06:00,90.4,72.0,29.98,East,91,1.0,7.0,55,0.00,BKN,BKN,0.00,WeatherDisplay:10.37,2013-08-23 21:06:00,
2013-08-23 16:12:00,90.0,71.6,29.97,ESE,104,3.0,5.0,55,0.00,BKN,BKN,0.00,WeatherDisplay:10.37,2013-08-23 21:12:00,
2013-08-23 16:18:00,90.2,71.9,29.97,SE,135,5.0,8.0,55,0.00,BKN,BKN,0.00,WeatherDisplay:10.37,2013-08-23 21:18:00,
2013-08-23 16:24:00,89.5,71.2,29.97,East,101,5.0,7.0,55,0.00,BKN,BKN,0.00,WeatherDisplay:10.37,2013-08-23 21:24:00,
2013-08-23 16:30:00,89.2,70.9,29.97,East,90,6.0,7.0,55,0.00,BKN,BKN,0.00,WeatherDisplay:10.37,2013-08-23 21:30:00,
2013-08-23 16:36:00,89.4,71.1,29.97,SE,124,2.0,7.0,55,0.00,BKN,BKN,0.00,WeatherDisplay:10.37,2013-08-23 21:36:00,
2013-08-23 16:42:00,89.7,71.3,29.97,ESE,121,5.0,7.0,55,0.00,BKN,BKN,0.00,WeatherDisplay:10.37,2013-08-23 21:42:00,
2013-08-23 16:48:00,89.9,71.6,29.97,East,86,7.0,8.0,55,0.00,BKN,BKN,0.00,WeatherDisplay:10.37,2013-08-23 21:48:00,
2013-08-23 16:54:00,89.4,71.7,29.97,East,100,2.0,5.0,56,0.00,BKN,BKN,0.00,WeatherDisplay:10.37,2013-08-23 21:54:00,
2013-08-23 17:00:00,89.3,71.6,29.97,ESE,114,5.0,7.0,56,0.00,BKN,BKN,0.00,WeatherDisplay:10.37,2013-08-23 22:00:00,
2013-08-23 17:06:00,88.9,71.7,29.97,SE,138,5.0,7.0,57,0.00,BKN,BKN,0.00,WeatherDisplay:10.37,2013-08-23 22:06:00,
2013-08-23 17:12:00,88.6,71.9,29.97,SE,140,5.0,6.0,58,0.00,BKN,BKN,0.00,WeatherDisplay:10.37,2013-08-23 22:12:00,
2013-08-23 17:18:00,89.0,71.8,29.97,SE,134,5.0,7.0,57,0.00,BKN,BKN,0.00,WeatherDisplay:10.37,2013-08-23 22:18:00,
2013-08-23 17:24:00,88.9,71.7,29.97,SE,133,5.0,7.0,57,0.00,BKN,BKN,0.00,WeatherDisplay:10.37,2013-08-23 22:24:00,
2013-08-23 17:30:00,88.9,71.1,29.97,ESE,115,5.0,7.0,56,0.00,BKN,BKN,0.00,WeatherDisplay:10.37,2013-08-23 22:30:00,
2013-08-23 17:36:00,89.5,72.2,29.97,SE,131,8.0,9.0,57,0.00,BKN,BKN,0.00,WeatherDisplay:10.37,2013-08-23 22:36:00,
2013-08-23 17:42:00,90.0,72.2,29.97,South,179,6.0,13.0,56,0.00,BKN,BKN,0.00,WeatherDisplay:10.37,2013-08-23 22:42:00,
2013-08-23 17:48:00,90.1,72.3,29.97,SE,144,7.0,12.0,56,0.00,BKN,BKN,0.00,WeatherDisplay:10.37,2013-08-23 22:48:00,
2013-08-23 17:54:00,89.6,72.3,29.97,ESE,119,6.0,10.0,57,0.00,BKN,BKN,0.00,WeatherDisplay:10.37,2013-08-23 22:54:00,
2013-08-23 18:00:00,89.6,71.8,29.97,WSW,253,5.0,8.0,56,0.00,BKN,BKN,0.00,WeatherDisplay:10.37,2013-08-23 23:00:00,
2013-08-23 18:06:00,90.2,71.8,29.97,East,89,6.0,7.0,55,0.00,BKN,BKN,0.00,WeatherDisplay:10.37,2013-08-23 23:06:00,
2013-08-23 18:12:00,91.3,72.3,29.97,East,98,7.0,10.0,54,0.00,BKN,BKN,0.00,WeatherDisplay:10.37,2013-08-23 23:12:00,
2013-08-23 18:18:00,92.2,72.6,29.97,ESE,110,5.0,7.0,53,0.00,BKN,BKN,0.00,WeatherDisplay:10.37,2013-08-23 23:18:00,
2013-08-23 18:24:00,91.3,72.3,29.97,East,91,9.0,10.0,54,0.00,BKN,BKN,0.00,WeatherDisplay:10.37,2013-08-23 23:24:00,
2013-08-23 18:30:00,91.4,73.0,29.97,East,94,5.0,7.0,55,0.00,BKN,BKN,0.00,WeatherDisplay:10.37,2013-08-23 23:30:00,
2013-08-23 18:36:00,89.5,72.2,29.97,South,178,7.0,12.0,57,0.00,BKN,BKN,0.00,WeatherDisplay:10.37,2013-08-23 23:36:00,
2013-08-23 18:42:00,88.9,72.2,29.97,SSE,151,5.0,7.0,58,0.00,BKN,BKN,0.00,WeatherDisplay:10.37,2013-08-23 23:42:00,
2013-08-23 18:48:00,88.5,72.3,29.97,ESE,118,7.0,10.0,59,0.00,BKN,BKN,0.00,WeatherDisplay:10.37,2013-08-23 23:48:00,
2013-08-23 18:54:00,88.3,72.2,29.97,East,101,6.0,9.0,59,0.00,BKN,BKN,0.00,WeatherDisplay:10.37,2013-08-23 23:54:00,
2013-08-23 19:00:00,88.4,72.7,29.96,ESE,111,6.0,7.0,60,0.00,BKN,BKN,0.00,WeatherDisplay:10.37,2013-08-24 00:00:00,
2013-08-23 19:06:00,88.7,73.0,29.96,SE,127,5.0,6.0,60,0.00,SCT,SCT,0.00,WeatherDisplay:10.37,2013-08-24 00:06:00,
2013-08-23 19:12:00,88.8,73.1,29.96,East,101,6.0,7.0,60,0.00,SCT,SCT,0.00,WeatherDisplay:10.37,2013-08-24 00:12:00,
2013-08-23 19:18:00,88.2,73.5,29.96,East,88,6.0,12.0,62,0.00,SCT,SCT,0.00,WeatherDisplay:10.37,2013-08-24 00:18:00,
2013-08-23 19:24:00,87.8,73.6,29.96,ESE,116,3.0,14.0,63,0.00,SCT,SCT,0.00,WeatherDisplay:10.37,2013-08-24 00:24:00,
2013-08-23 19:30:00,87.2,73.5,29.96,East,100,3.0,13.0,64,0.00,SCT,SCT,0.00,WeatherDisplay:10.37,2013-08-24 00:30:00,
2013-08-23 19:36:00,87.1,73.9,29.96,SE,136,3.0,5.0,65,0.00,SCT,SCT,0.00,WeatherDisplay:10.37,2013-08-24 00:36:00,
2013-08-23 19:42:00,86.2,73.5,29.96,SSE,153,6.0,8.0,66,0.00,SCT,SCT,0.00,WeatherDisplay:10.37,2013-08-24 00:42:00,
2013-08-23 19:48:00,85.9,73.6,29.96,ESE,117,6.0,8.0,67,0.00,SCT,SCT,0.00,WeatherDisplay:10.37,2013-08-24 00:48:00,
2013-08-23 19:54:00,85.3,73.1,29.96,ESE,115,5.0,7.0,67,0.00,SCT,SCT,0.00,WeatherDisplay:10.37,2013-08-24 00:54:00,
2013-08-23 20:00:00,85.0,73.2,29.96,ESE,114,3.0,6.0,68,0.00,SCT,SCT,0.00,WeatherDisplay:10.37,2013-08-24 01:00:00,
2013-08-23 20:06:00,84.8,73.0,29.96,East,101,6.0,7.0,68,0.00,SCT,SCT,0.00,WeatherDisplay:10.37,2013-08-24 01:06:00,
2013-08-23 20:12:00,84.2,72.5,29.96,ESE,117,3.0,5.0,68,0.00,SCT,SCT,0.00,WeatherDisplay:10.37,2013-08-24 01:12:00,
2013-08-23 20:18:00,84.1,72.8,29.96,ESE,111,7.0,7.0,69,0.00,SCT,SCT,0.00,WeatherDisplay:10.37,2013-08-24 01:18:00,
2013-08-23 20:24:00,83.7,72.4,29.96,East,83,5.0,7.0,69,0.00,SCT,SCT,0.00,WeatherDisplay:10.37,2013-08-24 01:24:00,
2013-08-23 20:30:00,83.5,72.3,29.97,SSE,159,5.0,5.0,69,0.00,SCT,SCT,0.00,WeatherDisplay:10.37,2013-08-24 01:30:00,
2013-08-23 20:36:00,83.3,72.0,29.97,SE,124,2.0,6.0,69,0.00,SCT,SCT,0.00,WeatherDisplay:10.37,2013-08-24 01:36:00,
2013-08-23 20:42:00,83.0,72.2,29.97,ESE,121,2.0,4.0,70,0.00,SCT,SCT,0.00,WeatherDisplay:10.37,2013-08-24 01:42:00,
2013-08-23 20:48:00,82.6,71.8,29.97,ESE,121,5.0,7.0,70,0.00,SCT,SCT,0.00,WeatherDisplay:10.37,2013-08-24 01:48:00,
2013-08-23 20:54:00,82.6,71.8,29.97,SSE,166,3.0,5.0,70,0.00,SCT,SCT,0.00,WeatherDisplay:10.37,2013-08-24 01:54:00,
2013-08-23 21:00:00,82.3,71.9,29.97,ESE,121,5.0,7.0,71,0.00,SCT,SCT,0.00,WeatherDisplay:10.37,2013-08-24 02:00:00,
2013-08-23 21:06:00,82.1,71.7,29.98,ESE,110,2.0,6.0,71,0.00,SCT,SCT,0.00,WeatherDisplay:10.37,2013-08-24 02:06:00,
2013-08-23 21:12:00,81.6,71.7,29.98,ESE,107,2.0,4.0,72,0.00,SCT,SCT,0.00,WeatherDisplay:10.37,2013-08-24 02:12:00,
2013-08-23 21:18:00,81.5,72.0,29.99,ESE,122,3.0,4.0,73,0.00,SCT,SCT,0.00,WeatherDisplay:10.37,2013-08-24 02:18:00,
2013-08-23 21:24:00,81.4,71.9,29.99,ESE,121,3.0,5.0,73,0.00,SCT,SCT,0.00,WeatherDisplay:10.37,2013-08-24 02:24:00,
2013-08-23 21:30:00,81.4,71.9,29.99,SE,125,3.0,6.0,73,0.00,SCT,SCT,0.00,WeatherDisplay:10.37,2013-08-24 02:30:00,
2013-08-23 21:36:00,81.2,71.7,29.99,East,97,3.0,7.0,73,0.00,SCT,SCT,0.00,WeatherDisplay:10.37,2013-08-24 02:36:00,
2013-08-23 21:42:00,81.0,71.5,30.00,ESE,108,5.0,8.0,73,0.00,SCT,SCT,0.00,WeatherDisplay:10.37,2013-08-24 02:42:00,
2013-08-23 21:48:00,80.8,71.3,30.00,SSE,157,3.0,6.0,73,0.00,SCT,SCT,0.00,WeatherDisplay:10.37,2013-08-24 02:48:00,
2013-08-23 21:54:00,80.8,71.3,30.00,SE,135,5.0,7.0,73,0.00,SCT,SCT,0.00,WeatherDisplay:10.37,2013-08-24 02:54:00,
2013-08-23 22:00:00,80.6,71.1,30.00,SE,145,3.0,7.0,73,0.00,SCT,SCT,0.00,WeatherDisplay:10.37,2013-08-24 03:00:00,
2013-08-23 22:06:00,80.5,71.0,30.01,SE,130,3.0,4.0,73,0.00,FEW,FEW,0.00,WeatherDisplay:10.37,2013-08-24 03:06:00,
2013-08-23 22:12:00,80.1,70.6,30.01,East,96,3.0,6.0,73,0.00,FEW,FEW,0.00,WeatherDisplay:10.37,2013-08-24 03:12:00,
2013-08-23 22:18:00,79.9,70.8,30.01,ESE,111,5.0,7.0,74,0.00,FEW,FEW,0.00,WeatherDisplay:10.37,2013-08-24 03:18:00,
2013-08-23 22:24:00,79.7,70.6,30.01,ESE,113,3.0,5.0,74,0.00,FEW,FEW,0.00,WeatherDisplay:10.37,2013-08-24 03:24:00,
2013-08-23 22:30:00,79.7,70.6,30.01,SE,131,3.0,8.0,74,0.00,FEW,FEW,0.00,WeatherDisplay:10.37,2013-08-24 03:30:00,
2013-08-23 22:36:00,79.4,70.3,30.01,SE,138,3.0,7.0,74,0.00,FEW,FEW,0.00,WeatherDisplay:10.37,2013-08-24 03:36:00,
2013-08-23 22:42:00,79.4,70.3,30.01,SE,126,3.0,7.0,74,0.00,FEW,FEW,0.00,WeatherDisplay:10.37,2013-08-24 03:42:00,
2013-08-23 22:48:00,79.4,70.3,30.01,SE,126,3.0,13.0,74,0.00,FEW,FEW,0.00,WeatherDisplay:10.37,2013-08-24 03:48:00,
2013-08-23 22:54:00,79.0,70.4,30.01,SE,143,3.0,7.0,75,0.00,FEW,FEW,0.00,WeatherDisplay:10.37,2013-08-24 03:54:00,
2013-08-23 23:00:00,78.8,70.2,30.02,SE,124,5.0,7.0,75,0.00,FEW,FEW,0.00,WeatherDisplay:10.37,2013-08-24 04:00:00,
2013-08-23 23:03:00,78.8,70.2,30.02,SE,142,5.0,6.0,75,0.00,FEW,FEW,0.00,WeatherDisplay:10.37,2013-08-24 04:03:00,
2013-08-23 23:06:00,78.8,70.2,30.02,SSE,156,5.0,6.0,75,0.00,FEW,FEW,0.00,WeatherDisplay:10.37,2013-08-24 04:06:00,
2013-08-23 23:09:00,78.7,70.1,30.02,SE,138,6.0,8.0,75,0.00,FEW,FEW,0.00,WeatherDisplay:10.37,2013-08-24 04:09:00,
2013-08-23 23:15:00,78.5,70.3,30.01,ESE,103,5.0,7.0,76,0.00,FEW,FEW,0.00,WeatherDisplay:10.37,2013-08-24 04:15:00,
2013-08-23 23:21:00,78.5,70.3,30.01,SE,133,3.0,7.0,76,0.00,FEW,FEW,0.00,WeatherDisplay:10.37,2013-08-24 04:21:00,
2013-08-23 23:24:00,78.3,70.1,30.01,SE,127,3.0,5.0,76,0.00,FEW,FEW,0.00,WeatherDisplay:10.37,2013-08-24 04:24:00,
2013-08-23 23:30:00,78.3,70.1,30.02,ESE,121,6.0,8.0,76,0.00,FEW,FEW,0.00,WeatherDisplay:10.37,2013-08-24 04:30:00,
2013-08-23 23:36:00,77.9,70.1,30.02,SE,138,5.0,7.0,77,0.00,FEW,FEW,0.00,WeatherDisplay:10.37,2013-08-24 04:36:00,
2013-08-23 23:42:00,77.9,70.1,30.02,SSE,159,6.0,9.0,77,0.00,FEW,FEW,0.00,WeatherDisplay:10.37,2013-08-24 04:42:00,
2013-08-23 23:48:00,77.8,70.3,30.02,SSE,147,3.0,7.0,78,0.00,FEW,FEW,0.00,WeatherDisplay:10.37,2013-08-24 04:48:00,
2013-08-23 23:54:00,77.4,70.0,30.02,ESE,120,3.0,5.0,78,0.00,FEW,FEW,0.00,WeatherDisplay:10.37,2013-08-24 04:54:00,